METAR LSZS 051920Z AUTO 18006KT 140V210 CAVOK 04/M03 Q1024=